Time;durP1;ratioP1;P1;durP2;ratioP2;P2;SDS_P1;SDS_P2;PMS_P1;PMS_P2;Temp;Humidity;BMP_temperature;BMP_pressure;BME280_temperature;BME280_humidity;BME280_pressure;Samples;Min_cycle;Max_cycle;Signal;HPM_P1;HPM_P2
2022/04/26 03:37:26;;;;;;;;;;;7.60;40.90;;;7.67;100.00;98466.94;5000042;28;130342;-70
2022/04/26 03:39:54;;;;;;;6.85;4.97;;;7.60;29.70;;;7.71;100.00;98468.69;5001379;28;128916;-70
2022/04/26 03:42:22;;;;;;;8.50;5.05;;;7.60;25.20;;;7.83;100.00;98462.63;4999569;28;119735;-71
2022/04/26 03:44:51;;;;;;;8.05;4.88;;;7.60;22.70;;;7.87;100.00;98466.31;4999378;28;120240;-70
2022/04/26 03:47:20;;;;;;;6.28;4.55;;;7.60;22.30;;;7.72;100.00;98464.09;4985030;28;107321;-72
2022/04/26 03:49:50;;;;;;;7.97;5.13;;;7.60;21.60;;;7.84;100.00;98464.25;4999482;28;129772;-72
2022/04/26 03:52:20;;;;;;;6.88;4.18;;;7.60;19.80;;;7.82;100.00;98469.19;5015771;28;119148;-71
2022/04/26 03:54:49;;;;;;;6.57;4.68;;;7.60;14.80;;;8.15;100.00;98470.56;4999457;28;119450;-72
2022/04/26 03:57:18;;;;;;;7.03;5.00;;;7.70;10.10;;;8.32;100.00;98480.56;4997860;28;130523;-72
2022/04/26 03:59:46;;;;;;;6.40;4.63;;;7.80;4.10;;;8.25;99.82;98472.94;4998023;28;129538;-69
2022/04/26 04:02:15;;;;;;;6.97;5.03;;;7.90;1.00;;;8.57;99.16;98481.63;4998507;28;119505;-70
2022/04/26 04:04:44;;;;;;;7.18;4.47;;;7.90;1.00;;;8.31;99.28;98489.78;4999074;28;119667;-72
2022/04/26 04:07:13;;;;;;;8.38;5.10;;;7.90;1.00;;;8.50;99.13;98479.44;5000383;28;130972;-75
2022/04/26 04:09:42;;;;;;;6.97;5.05;;;7.90;1.00;;;8.56;98.29;98483.56;4997868;28;129486;-74
2022/04/26 04:12:12;;;;;;;6.63;4.90;;;7.90;1.00;;;8.50;98.73;98482.13;4998967;28;119703;-70
2022/04/26 04:14:40;;;;;;;8.07;5.07;;;7.90;1.00;;;8.74;97.93;98486.19;5000888;28;119575;-70
2022/04/26 04:17:09;;;;;;;10.07;4.47;;;8.00;1.00;;;8.86;96.86;98483.59;4997288;28;129837;-72
2022/04/26 04:19:37;;;;;;;6.57;4.80;;;8.10;1.00;;;8.99;95.92;98485.31;4997375;28;129403;-69
2022/04/26 04:22:05;;;;;;;7.03;5.25;;;8.10;1.00;;;8.52;97.76;98490.72;4996203;28;122064;-70
2022/04/26 04:24:35;;;;;;;9.27;4.90;;;8.10;1.00;;;8.28;99.47;98489.31;4996800;28;122005;-70
2022/04/26 04:27:05;;;;;;;7.78;4.80;;;8.00;1.00;;;8.64;98.61;98492.75;5000299;28;128820;-71
2022/04/26 04:29:33;;;;;;;6.82;4.65;;;8.10;1.00;;;8.90;97.17;98498.06;4998679;28;129352;-71
2022/04/26 04:32:02;;;;;;;8.45;5.35;;;8.10;1.00;;;8.91;97.56;98499.69;4998721;28;120117;-69
2022/04/26 04:34:30;;;;;;;6.63;4.70;;;8.10;1.00;;;9.17;95.71;98491.41;4998749;28;120483;-71
2022/04/26 04:36:58;;;;;;;8.00;5.40;;;8.20;1.00;;;8.79;97.33;98499.56;5000360;28;128820;-69
2022/04/26 04:39:27;;;;;;;6.90;4.90;;;8.10;1.00;;;8.90;96.85;98503.50;4998547;28;129315;-71
2022/04/26 04:41:59;;;;;;;7.95;5.75;;;8.10;1.00;;;8.98;96.85;98508.06;4998509;28;120063;-72
2022/04/26 04:44:28;;;;;;;9.35;6.63;;;8.20;1.00;;;8.96;96.55;98509.50;4998498;28;119548;-71
2022/04/26 04:46:59;;;;;;;12.10;8.05;;;8.10;1.00;;;8.96;96.37;98504.91;5000084;28;129827;-69
2022/04/26 04:49:28;;;;;;;9.52;6.68;;;8.20;1.00;;;9.05;96.70;98506.75;4997853;28;129424;-71
2022/04/26 04:51:56;;;;;;;17.23;10.80;;;8.30;1.00;;;9.31;94.44;98501.22;4999629;28;118230;-70
2022/04/26 04:54:25;;;;;;;14.25;9.07;;;8.40;1.00;;;9.22;94.74;98508.59;4998418;28;119342;-71
2022/04/26 04:56:53;;;;;;;10.20;7.00;;;8.40;1.00;;;9.41;94.05;98508.97;4996795;28;130489;-73
2022/04/26 04:59:23;;;;;;;12.02;8.18;;;8.50;1.00;;;9.53;93.02;98516.38;5016965;28;129318;-70
2022/04/26 05:01:52;;;;;;;7.95;5.47;;;8.60;1.00;;;9.49;93.09;98520.84;5001039;28;119184;-71
2022/04/26 05:04:21;;;;;;;7.45;5.45;;;8.60;1.00;;;9.59;93.22;98517.78;4997782;28;119586;-71
2022/04/26 05:06:49;;;;;;;8.98;7.13;;;8.60;1.00;;;9.46;93.49;98519.63;4999327;28;129344;-68
2022/04/26 05:09:18;;;;;;;9.00;5.78;;;8.60;1.00;;;9.65;92.86;98524.59;4998204;28;129702;-70
2022/04/26 05:11:47;;;;;;;7.63;5.22;;;8.60;1.00;;;9.53;93.46;98521.81;4997104;28;122236;-72
2022/04/26 05:14:15;;;;;;;7.93;5.68;;;8.60;1.00;;;9.46;94.21;98518.84;4997962;28;121892;-72
2022/04/26 05:16:46;;;;;;;9.52;6.40;;;8.60;1.00;;;9.77;92.64;98520.38;5000722;28;129689;-72
2022/04/26 05:19:15;;;;;;;6.97;5.20;;;8.60;1.00;;;9.49;93.88;98527.09;4998074;28;129654;-75
2022/04/26 05:21:43;;;;;;;7.88;5.47;;;8.70;1.00;;;9.24;95.31;98531.53;5000986;28;118987;-75
2022/04/26 05:26:57;;;;;;;8.23;5.50;;;8.70;1.00;;;9.62;93.83;98530.66;4997934;28;129806;-77
2022/04/26 05:29:26;;;;;;;8.65;5.03;;;8.80;1.00;;;9.73;93.84;98519.47;4999976;28;130591;-74
2022/04/26 05:31:56;;;;;;;7.30;5.45;;;8.90;1.00;;;10.00;92.11;98529.78;4998364;28;120199;-75
2022/04/26 05:34:25;;;;;;;7.32;5.55;;;8.90;1.00;;;10.10;91.17;98527.75;5016740;28;118796;-74
2022/04/26 05:36:53;;;;;;;7.32;5.15;;;9.00;1.00;;;9.47;93.38;98536.66;4996436;28;129855;-77
2022/04/26 05:39:21;;;;;;;7.63;5.25;;;8.90;1.00;;;9.97;92.25;98533.16;4999652;28;129465;-76
2022/04/26 05:41:51;;;;;;;5.68;4.35;;;9.00;1.00;;;10.10;90.96;98533.19;4999933;28;118949;-74
2022/04/26 05:44:20;;;;;;;7.80;5.32;;;9.10;1.00;;;10.26;89.87;98534.19;4998383;28;120039;-77
2022/04/26 05:46:48;;;;;;;6.70;4.78;;;9.20;1.00;;;10.04;90.57;98544.25;5000333;28;130404;-76
2022/04/26 05:49:18;;;;;;;7.95;4.63;;;9.20;1.00;;;10.69;88.70;98543.84;4997458;28;129579;-74
2022/04/26 05:51:46;;;;;;;6.78;4.65;;;9.30;1.00;;;10.57;87.43;98549.25;4997889;28;119631;-77
2022/04/26 05:54:14;;;;;;;6.53;5.38;;;9.30;1.00;;;10.38;88.13;98550.53;4997960;28;120741;-73
2022/04/26 05:56:44;;;;;;;6.10;3.90;;;9.30;1.00;;;10.56;87.22;98561.22;4995203;28;130316;-74
2022/04/26 05:59:12;;;;;;;7.38;4.70;;;9.40;1.00;;;10.82;86.73;98555.53;4992337;28;129913;-76
2022/04/26 06:01:41;;;;;;;6.82;4.93;;;9.50;1.00;;;10.83;86.58;98553.59;4996456;28;122758;-74
2022/04/26 06:04:10;;;;;;;6.82;4.63;;;9.60;1.00;;;11.13;85.28;98562.38;4997586;28;122017;-74
2022/04/26 06:06:40;;;;;;;6.38;4.80;;;9.80;1.00;;;11.14;84.97;98562.03;4996885;28;129831;-74
2022/04/26 06:09:08;;;;;;;6.00;4.50;;;9.70;1.00;;;11.01;84.81;98570.50;4998632;28;129248;-76
2022/04/26 06:11:37;;;;;;;6.25;4.38;;;9.70;1.00;;;11.26;83.82;98560.44;4997254;28;120024;-78
2022/04/26 06:14:06;;;;;;;6.55;4.45;;;9.80;1.00;;;11.41;83.15;98567.94;4998727;28;119500;-76
2022/04/26 06:16:34;;;;;;;5.95;4.13;;;9.90;1.00;;;11.79;81.70;98566.75;4996831;28;130151;-75
2022/04/26 06:19:03;;;;;;;6.40;4.10;;;10.10;1.00;;;11.73;81.15;98572.78;5018300;28;128752;-75
2022/04/26 06:21:31;;;;;;;7.35;4.20;;;10.10;1.00;;;11.72;80.90;98577.44;5002277;28;119727;-75
2022/04/26 06:24:01;;;;;;;5.93;4.05;;;10.20;1.00;;;11.50;81.42;98570.53;5019518;28;119186;-75
2022/04/26 06:26:29;;;;;;;6.13;4.65;;;10.10;1.00;;;11.98;80.20;98579.00;5001304;28;129779;-76
2022/04/26 06:28:58;;;;;;;6.20;4.18;;;10.20;1.00;;;11.80;81.00;98584.66;5000484;28;130402;-75
2022/04/26 06:31:27;;;;;;;6.05;4.38;;;10.30;1.00;;;11.87;80.37;98589.50;4999727;28;120221;-73
2022/04/26 06:33:55;;;;;;;7.82;4.40;;;10.30;1.00;;;11.70;80.04;98579.69;5001056;28;119246;-77
2022/04/26 06:36:24;;;;;;;6.43;4.45;;;10.20;1.00;;;11.88;79.88;98589.16;5000414;28;129923;-76
2022/04/26 06:38:53;;;;;;;6.93;4.72;;;10.30;1.00;;;11.56;80.46;98585.47;5002529;28;128749;-75
2022/04/26 06:41:23;;;;;;;5.90;4.20;;;10.30;1.00;;;11.78;79.39;98592.38;5000695;28;119590;-75
2022/04/26 06:43:51;;;;;;;6.00;4.63;;;10.40;1.00;;;11.83;79.41;98577.75;5000102;28;120175;-75
2022/04/26 06:46:20;;;;;;;5.88;4.13;;;10.30;1.00;;;12.61;76.29;98588.56;5002114;28;130093;-75
2022/04/26 06:48:49;;;;;;;6.88;4.32;;;10.60;1.00;;;12.68;75.90;98580.56;5000344;28;130317;-76
2022/04/26 06:51:17;;;;;;;5.90;4.10;;;10.60;1.00;;;12.70;75.54;98581.81;4999274;28;121962;-77
2022/04/26 06:53:46;;;;;;;6.60;4.40;;;11.10;1.00;;;13.16;73.93;98581.44;4999499;28;121119;-73
2022/04/26 06:56:14;;;;;;;6.72;4.13;;;11.30;1.00;;;13.89;71.55;98583.94;4985164;28;128959;-74
2022/04/26 06:58:45;;;;;;;5.97;4.30;;;11.50;1.00;;;14.06;70.28;98578.09;4999986;28;130013;-73
2022/04/26 07:01:14;;;;;;;6.85;3.97;;;11.70;1.00;;;13.96;71.89;98584.91;5002012;28;118843;-73
2022/04/26 07:03:42;;;;;;;7.47;4.28;;;11.70;1.00;;;13.57;71.75;98590.25;4999995;28;119381;-77
2022/04/26 07:06:11;;;;;;;6.50;4.03;;;11.70;1.00;;;13.43;72.68;98592.63;4999622;28;130008;-73
2022/04/26 07:08:39;;;;;;;8.68;4.68;;;11.50;1.00;;;13.61;71.84;98590.34;4999882;28;129574;-73
2022/04/26 07:11:08;;;;;;;6.68;4.57;;;11.50;1.00;;;12.46;75.09;98595.53;4999653;28;119474;-76
2022/04/26 07:13:36;;;;;;;6.93;4.50;;;11.00;1.00;;;12.50;74.34;98605.38;4999774;28;119740;-73
2022/04/26 07:16:07;;;;;;;6.03;4.05;;;10.90;1.00;;;12.10;76.33;98598.00;4998790;28;130763;-75
2022/04/26 07:18:36;;;;;;;7.88;4.40;;;10.70;1.00;;;12.01;77.09;98603.59;4999252;28;129325;-75
2022/04/26 07:21:04;;;;;;;7.05;4.25;;;10.80;1.00;;;12.44;77.28;98608.69;4998390;28;119420;-74
2022/04/26 07:23:32;;;;;;;8.45;6.07;;;10.90;1.00;;;12.68;75.26;98610.50;4999752;28;119766;-74
2022/04/26 07:26:01;;;;;;;6.40;4.28;;;11.10;1.00;;;12.92;71.83;98615.84;5001179;28;129376;-73
2022/04/26 07:28:29;;;;;;;5.45;3.83;;;11.30;1.00;;;13.07;69.83;98608.03;4996840;28;130120;-69
2022/04/26 07:30:57;;;;;;;6.97;4.20;;;11.20;1.00;;;13.97;69.71;98610.22;4999130;28;119718;-73
2022/04/26 07:36:13;;;;;;;7.63;5.22;;;12.20;1.00;;;14.74;66.44;98612.25;4999114;28;129865;-72
2022/04/26 07:38:41;;;;;;;9.77;5.90;;;12.10;1.00;;;14.44;67.45;98616.69;4999221;28;130222;-71
2022/04/26 07:41:11;;;;;;;7.57;5.07;;;12.00;1.00;;;13.26;70.17;98613.63;4999793;28;122394;-71
2022/04/26 07:43:39;;;;;;;10.23;7.05;;;11.60;1.00;;;13.20;69.59;98623.19;4998874;28;122287;-72
2022/04/26 07:46:08;;;;;;;6.75;4.75;;;11.60;1.00;;;13.23;69.35;98614.31;5000322;28;129602;-70
2022/04/26 07:48:41;;;;;;;5.85;4.45;;;11.40;1.00;;;14.17;65.99;98616.50;4997500;28;129441;-73
2022/04/26 07:51:10;;;;;;;5.88;4.38;;;11.90;1.00;;;15.48;62.80;98623.31;5000747;28;119085;-71
2022/04/26 07:53:38;;;;;;;8.25;4.63;;;12.50;1.00;;;16.26;60.20;98620.19;4999193;28;119484;-73
2022/04/26 07:56:07;;;;;;;6.55;3.83;;;13.10;1.00;;;15.94;60.29;98634.19;4998635;28;130370;-72
2022/04/26 07:58:35;;;;;;;6.35;4.43;;;13.20;1.00;;;14.72;64.16;98630.94;4998938;28;129873;-71
2022/04/26 08:01:04;;;;;;;6.07;4.25;;;12.50;1.00;;;15.14;61.77;98634.03;5000935;28;119115;-75
2022/04/26 08:03:33;;;;;;;6.03;4.47;;;12.50;1.00;;;14.34;63.85;98642.63;5000995;28;119490;-74
2022/04/26 08:06:04;;;;;;;7.53;4.05;;;12.20;1.00;;;13.98;65.89;98639.88;4997438;28;130518;-71
2022/04/26 08:08:33;;;;;;;7.38;4.85;;;12.10;1.00;;;14.16;65.52;98637.56;4998591;28;130057;-71
2022/04/26 08:11:01;;;;;;;6.47;4.47;;;12.10;1.00;;;14.47;63.35;98635.06;4998779;28;120786;-74
2022/04/26 08:13:30;;;;;;;6.30;4.55;;;11.90;1.00;;;14.41;64.65;98647.41;4997333;28;120510;-73
2022/04/26 08:15:58;;;;;;;7.75;4.68;;;12.00;1.00;;;14.50;63.58;98645.28;4998510;28;131402;-72
2022/04/26 08:18:27;;;;;;;6.22;4.22;;;12.10;1.00;;;13.53;66.70;98648.56;4998771;28;130447;-73
2022/04/26 08:20:55;;;;;;;7.43;4.25;;;11.70;1.00;;;13.81;65.68;98651.19;4999015;28;119914;-72
2022/04/26 08:23:25;;;;;;;6.38;4.18;;;11.80;1.00;;;13.58;66.17;98656.47;4999708;28;120243;-75
2022/04/26 08:28:41;;;;;;;5.80;4.32;;;11.50;1.00;;;12.89;68.76;98660.13;4998792;28;129622;-71
2022/04/26 08:31:09;;;;;;;8.07;5.10;;;11.50;1.00;;;13.24;67.35;98664.91;4997672;28;121991;-71
2022/04/26 08:33:38;;;;;;;5.97;4.45;;;11.80;1.00;;;13.12;67.86;98665.00;4998900;28;121711;-68
2022/04/26 08:36:06;;;;;;;9.60;5.88;;;11.70;1.00;;;12.82;69.87;98664.56;4998486;28;129731;-72
2022/04/26 08:38:36;;;;;;;7.38;5.18;;;11.60;1.00;;;12.91;69.19;98662.50;4998557;28;129784;-71
2022/04/26 08:41:04;;;;;;;6.50;4.25;;;11.60;1.00;;;12.98;66.54;98672.78;4998074;28;120377;-73
2022/04/26 08:43:33;;;;;;;7.43;5.20;;;11.70;1.00;;;13.55;66.16;98677.03;4997813;28;119195;-69
2022/04/26 08:46:02;;;;;;;8.15;5.95;;;11.80;1.00;;;13.09;67.37;98668.44;5000006;28;130036;-71
2022/04/26 08:51:17;;;;;;;11.07;7.03;;;12.00;1.00;;;13.19;65.11;98695.16;4998644;28;120481;-69
2022/04/26 08:53:46;;;;;;;8.68;5.88;;;11.90;1.00;;;12.80;67.08;98683.97;4998565;28;119215;-71
2022/04/26 08:56:16;;;;;;;6.78;4.93;;;11.60;1.00;;;13.55;66.95;98678.97;4996726;28;129986;-70
2022/04/26 08:58:45;;;;;;;7.20;4.70;;;12.00;1.00;;;13.48;64.74;98690.50;4998073;28;129533;-72
2022/04/26 09:01:16;;;;;;;6.97;4.05;;;12.10;1.00;;;13.74;62.48;98692.69;4998832;28;120105;-67
2022/04/26 09:03:55;;;;;;;9.98;4.20;;;12.30;1.00;;;13.75;62.96;98688.03;5000698;28;118971;-69
2022/04/26 09:06:35;;;;;;;6.10;4.20;;;12.30;1.00;;;13.85;63.41;98692.94;4999681;28;129829;-67
2022/04/26 09:09:10;;;;;;;6.13;4.25;;;12.20;1.00;;;14.17;62.04;98690.97;5000021;28;129304;-70
2022/04/26 09:11:39;;;;;;;6.57;4.38;;;12.40;1.00;;;15.08;58.79;98697.19;4998315;28;119644;-71
2022/04/26 09:14:11;;;;;;;6.00;4.30;;;12.90;1.00;;;14.88;58.37;98703.81;4998526;28;119623;-69
2022/04/26 09:16:40;;;;;;;7.18;4.30;;;12.80;1.00;;;15.07;57.80;98701.06;4996998;28;130408;-70
2022/04/26 09:19:08;;;;;;;7.10;4.47;;;12.80;1.00;;;15.93;57.23;98695.56;4999779;28;128248;-70
2022/04/26 09:21:54;;;;;;;6.95;4.65;;;13.40;1.00;;;15.41;56.78;98693.13;5015721;28;121553;-70
2022/04/26 09:24:24;;;;;;;6.68;4.60;;;13.20;1.00;;;16.24;57.03;98689.00;4998566;28;121773;-71
2022/04/26 09:26:52;;;;;;;6.88;4.90;;;13.50;1.00;;;17.09;53.66;98704.19;4998136;28;129665;-69
2022/04/26 09:29:20;;;;;;;6.38;4.50;;;13.90;1.00;;;17.81;51.31;98698.59;4998130;28;130024;-69
2022/04/26 09:32:02;;;;;;;5.85;4.20;;;14.40;1.00;;;16.65;51.26;98702.06;4998202;28;120713;-71
2022/04/26 09:34:38;;;;;;;6.07;4.18;;;14.10;1.00;;;16.84;52.44;98699.19;4999969;28;119142;-70
2022/04/26 09:37:08;;;;;;;8.50;5.85;;;13.90;1.00;;;17.25;50.87;98707.50;4999589;28;129358;-70
2022/04/26 09:39:39;;;;;;;7.90;4.78;;;14.10;1.00;;;15.91;54.84;98706.06;4998177;28;129339;-68
2022/04/26 09:42:08;;;;;;;5.57;3.80;;;13.60;1.00;;;16.51;52.64;98703.44;4998130;28;119800;-70
2022/04/26 09:44:40;;;;;;;6.47;4.20;;;13.80;1.00;;;15.77;52.62;98714.84;4998029;28;119563;-70
2022/04/26 09:47:09;;;;;;;6.82;3.60;;;13.50;1.00;;;15.79;53.28;98698.88;4995704;28;130526;-67
2022/04/26 09:49:40;;;;;;;6.18;3.92;;;13.40;1.00;;;15.38;52.90;98715.72;4996159;28;129738;-72
2022/04/26 09:52:13;;;;;;;8.68;4.57;;;13.30;1.00;;;15.46;54.30;98703.75;4998260;28;119922;-66
2022/04/26 09:54:45;;;;;;;6.15;4.07;;;13.10;1.00;;;15.18;54.69;98722.38;5003798;28;119615;-69
2022/04/26 09:57:21;;;;;;;6.93;5.07;;;13.00;1.00;;;14.25;58.76;98727.41;5003029;28;130158;-70
2022/04/26 09:59:50;;;;;;;7.53;4.93;;;12.70;1.00;;;14.29;57.54;98722.00;5001140;28;129575;-70
2022/04/26 10:02:18;;;;;;;8.10;5.32;;;12.80;1.00;;;15.55;54.22;98733.59;5003233;28;118295;-72
2022/04/26 10:04:49;;;;;;;8.73;5.60;;;13.10;1.00;;;15.82;53.98;98723.53;5002100;28;119706;-70
2022/04/26 10:07:20;;;;;;;8.25;5.20;;;13.30;1.00;;;16.71;50.67;98722.50;5001036;28;129971;-69
2022/04/26 10:09:51;;;;;;;8.20;5.60;;;13.80;1.00;;;16.81;50.03;98730.06;4999662;28;129649;-69
2022/04/26 10:12:22;;;;;;;8.50;6.40;;;13.50;1.00;;;16.07;51.51;98733.31;4999795;28;122089;-69
2022/04/26 10:14:51;;;;;;;9.32;6.22;;;13.30;1.00;;;15.88;52.18;98734.16;5000993;28;121744;-70
2022/04/26 10:17:20;;;;;;;8.48;6.45;;;13.60;1.00;;;14.87;54.88;98740.47;5000556;28;130521;-71
2022/04/26 10:19:49;;;;;;;7.45;4.55;;;13.10;1.00;;;14.88;54.34;98755.69;5000593;28;129979;-74
2022/04/26 10:22:18;;;;;;;9.20;4.97;;;12.90;1.00;;;15.33;53.81;98746.06;4999922;28;119566;-68
2022/04/26 10:25:12;;;;;;;8.55;4.63;;;13.10;1.00;;;15.30;54.31;98746.78;5019711;28;119995;-70
2022/04/26 10:27:41;;;;;;;9.10;4.60;;;13.20;1.00;;;15.11;54.01;98750.31;5000206;28;130451;-69
2022/04/26 10:30:10;;;;;;;7.50;5.50;;;13.20;1.00;;;14.19;57.09;98747.91;5000609;28;129692;-70
2022/04/26 10:32:39;;;;;;;7.50;5.43;;;12.80;1.00;;;14.74;57.38;98748.81;5000816;28;119648;-71
2022/04/26 10:35:32;;;;;;;6.72;4.80;;;12.90;1.00;;;14.06;59.38;98757.34;5002015;28;119139;-70
2022/04/26 10:38:12;;;;;;;7.45;5.53;;;12.60;1.00;;;13.04;62.45;98764.00;4994777;28;130099;-72
2022/04/26 10:41:09;;;;;;;7.15;5.35;;;12.10;1.00;;;13.17;63.42;98768.28;5000207;28;129623;-70
2022/04/26 10:43:38;;;;;;;8.68;5.75;;;12.10;1.00;;;13.85;60.74;98758.38;5034642;27;120119;-69
2022/04/26 10:46:11;;;;;;;8.35;5.35;;;12.50;1.00;;;13.66;59.84;98767.25;5025668;27;119076;-71
2022/04/26 10:48:40;;;;;;;8.15;5.20;;;12.40;1.00;;;13.36;60.76;98767.66;5008620;27;129742;-70
2022/04/26 10:51:35;;;;;;;7.72;5.32;;;12.20;1.00;;;13.52;59.93;98758.72;5040265;27;129899;-69
2022/04/26 10:54:04;;;;;;;7.03;4.97;;;12.20;1.00;;;13.62;59.27;98778.09;5018937;27;120003;-71
2022/04/26 10:56:35;;;;;;;7.70;5.30;;;12.20;1.00;;;13.64;59.01;98773.06;5043164;27;118268;-72
2022/04/26 10:59:13;;;;;;;7.03;5.47;;;12.30;1.00;;;13.57;59.88;98780.25;5025337;27;129410;-71
2022/04/26 11:01:44;;;;;;;8.20;5.63;;;12.20;1.00;;;13.78;60.01;98774.59;5040046;27;130207;-71
2022/04/26 11:04:18;;;;;;;9.45;6.47;;;12.40;1.00;;;14.18;58.49;98782.59;5006658;27;121087;-69
2022/04/26 11:06:47;;;;;;;8.25;4.97;;;12.60;1.00;;;13.45;58.91;98783.84;5040323;27;122201;-73
2022/04/26 11:09:18;;;;;;;8.52;5.85;;;12.20;1.00;;;13.56;60.23;98784.16;5037260;27;130620;-70
2022/04/26 11:11:52;;;;;;;9.23;5.05;;;12.10;1.00;;;13.42;60.68;98779.09;5024963;27;128267;-70
2022/04/26 11:14:20;;;;;;;9.00;6.32;;;12.00;1.00;;;13.07;61.15;98793.25;5040287;27;119683;-72
2022/04/26 11:16:58;;;;;;;6.88;5.15;;;11.90;1.00;;;13.36;61.19;98781.28;5039185;27;119918;-74
2022/04/26 11:19:29;;;;;;;7.25;4.85;;;12.00;1.00;;;13.26;61.85;98788.00;5039800;27;130430;-72
2022/04/26 11:21:58;;;;;;;9.68;6.90;;;11.80;1.00;;;13.99;60.17;98786.03;5040205;27;130470;-71
2022/04/26 11:30:00;;;;;;;9.57;6.70;;;12.60;1.00;;;14.89;55.98;98795.53;5038522;27;130290;-70
2022/04/26 11:32:32;;;;;;;10.25;6.15;;;12.60;1.00;;;14.62;55.83;98787.16;5040590;27;129357;-73
2022/04/26 11:35:01;;;;;;;14.55;11.68;;;12.40;1.00;;;14.30;58.26;98798.06;5039966;27;120004;-68
2022/04/26 11:37:29;;;;;;;9.02;6.47;;;12.30;1.00;;;13.69;59.19;98798.50;5040082;27;119823;-69
2022/04/26 11:40:01;;;;;;;7.70;5.40;;;12.20;1.00;;;13.55;59.57;98799.69;5021074;27;130662;-71
2022/04/26 11:42:35;;;;;;;7.95;5.63;;;12.20;1.00;;;13.17;61.37;98800.97;5039579;27;129809;-70
2022/04/26 11:45:06;;;;;;;12.65;9.10;;;12.10;1.00;;;14.19;58.84;98797.84;5021998;27;119839;-70
2022/04/26 11:47:44;;;;;;;11.18;7.18;;;12.30;1.00;;;14.20;58.76;98801.34;5040425;27;120337;-69
2022/04/26 11:50:16;;;;;;;8.88;6.15;;;12.40;1.00;;;14.89;56.57;98803.72;5023829;27;129526;-69
2022/04/26 11:52:46;;;;;;;8.50;5.75;;;12.60;1.00;;;14.99;56.16;98805.91;5039349;27;129303;-69
2022/04/26 11:55:24;;;;;;;7.40;5.38;;;13.00;1.00;;;14.92;55.71;98809.25;5038222;27;122290;-69
2022/04/26 11:58:05;;;;;;;6.82;5.15;;;12.80;1.00;;;15.24;54.57;98803.69;5021194;27;122346;-69
2022/04/26 12:00:34;;;;;;;7.63;4.88;;;12.80;1.00;;;14.87;54.70;98795.91;5039316;27;129849;-69
2022/04/26 12:03:03;;;;;;;8.20;5.60;;;12.70;1.00;;;15.01;55.23;98795.41;5038874;27;129329;-70
2022/04/26 12:05:39;;;;;;;7.43;5.15;;;12.70;1.00;;;14.92;55.10;98803.03;5039533;27;119927;-71
2022/04/26 12:08:12;;;;;;;6.93;4.85;;;12.60;1.00;;;14.38;56.55;98797.13;5039351;27;119521;-70
2022/04/26 12:10:41;;;;;;;9.05;5.85;;;12.40;1.00;;;14.41;57.62;98800.28;5038758;27;129995;-72
2022/04/26 12:13:11;;;;;;;9.93;5.90;;;12.30;1.00;;;14.38;57.62;98799.03;5039127;27;129445;-70
2022/04/26 12:15:40;;;;;;;10.27;6.10;;;12.20;1.00;;;14.31;57.67;98802.41;5037960;27;119528;-70
2022/04/26 12:18:13;;;;;;;9.65;6.28;;;12.40;1.00;;;14.44;57.45;98794.13;5039177;27;119642;-69
2022/04/26 12:21:00;;;;;;;11.38;7.45;;;12.50;1.00;;;14.36;57.01;98802.13;5037877;27;130218;-71
2022/04/26 12:23:29;;;;;;;;;;;12.60;1.00;;;14.53;56.84;98795.50;5039605;27;129486;-71
2022/04/26 12:25:58;;;;;;;6.13;3.97;;;12.70;1.00;;;14.52;55.56;98799.41;5023650;27;120808;-69
2022/04/26 12:28:28;;;;;;;8.50;5.35;;;12.50;1.00;;;14.58;56.03;98810.81;5023501;27;119649;-71
2022/04/26 12:30:57;;;;;;;9.10;6.28;;;12.30;1.00;;;14.77;56.43;98809.31;5040803;27;130037;-70
2022/04/26 12:33:30;;;;;;;8.85;6.38;;;12.60;1.00;;;14.95;55.52;98807.78;5038925;27;129655;-71
2022/04/26 12:36:01;;;;;;;8.30;4.43;;;12.80;1.00;;;14.95;55.67;98805.03;5024210;27;119359;-74
2022/04/26 12:38:30;;;;;;;6.45;4.55;;;12.60;1.00;;;14.84;55.27;98802.06;5039868;27;119727;-73
2022/04/26 12:41:07;;;;;;;8.52;4.30;;;12.60;1.00;;;14.57;55.96;98795.59;5039095;27;129750;-75
2022/04/26 12:43:38;;;;;;;7.20;4.93;;;12.40;1.00;;;14.60;57.09;98797.66;5038743;27;130237;-73
2022/04/26 12:46:07;;;;;;;9.43;5.05;;;12.30;1.00;;;14.86;57.01;98805.22;5039953;27;122062;-73
2022/04/26 12:51:27;;;;;;;10.93;6.25;;;13.00;1.00;;;15.40;54.83;98800.88;5038691;27;129963;-71
2022/04/26 12:54:08;;;;;;;7.82;5.40;;;12.90;1.00;;;15.69;52.51;98801.44;5038850;27;130666;-74
2022/04/26 12:56:37;;;;;;;6.97;4.43;;;13.20;1.00;;;15.40;52.97;98798.16;5038839;27;119560;-73
2022/04/26 12:59:17;;;;;;;8.45;4.55;;;13.00;1.00;;;15.59;53.11;98802.03;5038682;27;119347;-72
2022/04/26 13:01:46;;;;;;;7.70;4.95;;;13.10;1.00;;;15.71;52.43;98806.56;5023049;27;129462;-73
2022/04/26 13:04:14;;;;;;;8.82;4.90;;;13.10;1.00;;;15.69;52.21;98806.91;5038587;27;130225;-72
2022/04/26 13:06:45;;;;;;;7.70;4.85;;;13.20;1.00;;;15.72;51.75;98800.72;5038088;27;119757;-73
2022/04/26 13:09:14;;;;;;;6.35;4.18;;;13.20;1.00;;;15.77;50.21;98797.69;5038569;27;120117;-73
2022/04/26 13:11:43;;;;;;;6.63;4.50;;;13.30;1.00;;;15.99;51.13;98806.28;5036925;27;130752;-73
2022/04/26 13:14:14;;;;;;;6.30;4.25;;;13.40;1.00;;;16.26;51.71;98806.34;5038275;27;129551;-73
2022/04/26 13:16:42;;;;;;;5.60;3.33;;;13.20;1.00;;;16.09;50.48;98808.41;5038603;27;119594;-73
2022/04/26 13:19:11;;;;;;;4.47;2.67;;;13.10;1.00;;;15.95;50.38;98802.69;5038317;27;119764;-74
2022/04/26 13:21:40;;;;;;;6.13;3.80;;;13.20;1.00;;;15.59;52.05;98807.50;5039776;27;129856;-72
2022/04/26 13:24:08;;;;;;;7.10;4.22;;;13.20;1.00;;;16.09;50.18;98797.47;5037121;27;130530;-72
2022/04/26 13:26:37;;;;;;;5.90;3.03;;;13.40;1.00;;;16.17;49.06;98795.63;5038104;27;120589;-71
2022/04/26 13:29:05;;;;;;;7.13;3.70;;;13.70;1.00;;;16.69;47.65;98802.31;5038436;27;121459;-70
2022/04/26 13:31:36;;;;;;;6.63;4.25;;;14.10;1.00;;;16.81;47.86;98793.09;5037881;27;130487;-69
2022/04/26 13:34:05;;;;;;;6.00;3.28;;;14.00;1.00;;;17.03;47.69;98794.19;5037980;27;129673;-69
2022/04/26 13:36:34;;;;;;;5.18;3.10;;;14.50;1.00;;;16.56;47.68;98802.88;5037181;27;121938;-70
2022/04/26 13:39:02;;;;;;;5.75;3.13;;;13.90;1.00;;;15.97;49.20;98794.91;5038209;27;121689;-69
2022/04/26 13:41:31;;;;;;;5.82;2.83;;;13.20;1.00;;;15.66;49.54;98790.41;5037740;27;130907;-71
2022/04/26 13:44:00;;;;;;;5.50;3.58;;;13.10;1.00;;;15.70;50.21;98786.59;5034860;27;131128;-70
2022/04/26 13:46:28;;;;;;;5.57;3.47;;;13.20;1.00;;;15.82;49.44;98783.72;5040294;27;119838;-73
2022/04/26 13:48:58;;;;;;;5.45;3.10;;;13.10;1.00;;;16.58;47.62;98795.09;5036693;27;119346;-69
2022/04/26 13:51:29;;;;;;;6.55;2.92;;;13.80;1.00;;;17.18;46.35;98795.16;5022368;27;128706;-69
2022/04/26 13:53:57;;;;;;;5.25;2.47;;;13.90;1.00;;;17.92;44.74;98792.81;5019394;27;129069;-70
2022/04/26 13:56:26;;;;;;;4.90;2.85;;;14.50;1.00;;;18.72;42.76;98783.25;5017717;28;120102;-69
2022/04/26 13:58:54;;;;;;;6.60;2.55;;;15.50;1.00;;;19.35;40.91;98775.69;5002588;28;118993;-71
2022/04/26 14:01:23;;;;;;;5.80;2.65;;;18.60;1.00;;;18.79;41.58;98788.78;5015595;28;129867;-66
2022/04/26 14:03:52;;;;;;;4.70;2.72;;;17.30;1.00;;;17.59;43.13;98791.69;5034099;27;129701;-74
2022/04/26 14:06:22;;;;;;;4.82;2.97;;;15.40;1.00;;;16.97;44.36;98790.19;5037141;27;120516;-76
2022/04/26 14:08:51;;;;;;;5.53;2.75;;;14.60;1.00;;;16.50;45.94;98789.53;5037457;27;119447;-69
2022/04/26 14:11:21;;;;;;;6.45;4.88;;;14.00;1.00;;;15.74;48.99;98798.41;5036907;27;129768;-75
2022/04/26 14:22:08;;;;;;;7.40;3.83;;;13.10;1.00;;;15.37;49.05;98798.88;5038707;27;129113;-73
2022/04/26 14:24:37;;;;;;;7.07;2.92;;;13.40;1.00;;;15.66;48.14;98802.16;5019109;27;129876;-73
2022/04/26 14:27:06;;;;;;;4.07;2.58;;;13.40;1.00;;;15.86;47.48;98804.88;5021292;27;121708;-70
2022/04/26 14:29:34;;;;;;;8.25;4.20;;;13.50;1.00;;;16.07;47.46;98799.78;5037253;27;122408;-73
2022/04/26 14:32:03;;;;;;;4.93;2.85;;;13.50;1.00;;;16.33;47.04;98800.97;5037211;27;129596;-70
2022/04/26 14:34:32;;;;;;;6.82;2.60;;;13.60;1.00;;;16.47;46.92;98811.34;5037098;27;129540;-70
2022/04/26 14:37:02;;;;;;;6.50;3.05;;;13.80;1.00;;;16.29;48.14;98808.34;5037675;27;119878;-69
2022/04/26 14:39:31;;;;;;;7.70;3.53;;;13.70;1.00;;;17.09;46.63;98815.78;5038635;27;120234;-71